sensor_id;sensor_type;location;lat;lon;timestamp;temperature;humidity
610;DHT22;292;48.800;9.216;2022-11-20T00:01:32;8.40;83.60
610;DHT22;292;48.800;9.216;2022-11-20T00:04:00;8.30;83.60
610;DHT22;292;48.800;9.216;2022-11-20T00:06:29;8.30;83.80
610;DHT22;292;48.800;9.216;2022-11-20T00:08:58;8.40;84.10
610;DHT22;292;48.800;9.216;2022-11-20T00:11:27;8.40;83.80
610;DHT22;292;48.800;9.216;2022-11-20T00:13:56;8.40;83.80
610;DHT22;292;48.800;9.216;2022-11-20T00:16:25;8.40;83.80
610;DHT22;292;48.800;9.216;2022-11-20T00:18:52;8.30;84.10
610;DHT22;292;48.800;9.216;2022-11-20T00:21:22;8.30;84.10
610;DHT22;292;48.800;9.216;2022-11-20T00:23:52;8.30;84.10
610;DHT22;292;48.800;9.216;2022-11-20T00:26:21;8.30;84.10
610;DHT22;292;48.800;9.216;2022-11-20T00:28:50;8.30;84.20
610;DHT22;292;48.800;9.216;2022-11-20T00:31:18;8.30;84.20
610;DHT22;292;48.800;9.216;2022-11-20T00:33:45;8.30;84.20
610;DHT22;292;48.800;9.216;2022-11-20T00:36:14;8.30;84.40
610;DHT22;292;48.800;9.216;2022-11-20T00:38:41;8.30;84.40
610;DHT22;292;48.800;9.216;2022-11-20T00:41:11;8.40;84.50
610;DHT22;292;48.800;9.216;2022-11-20T00:43:39;8.40;84.50
610;DHT22;292;48.800;9.216;2022-11-20T00:46:08;8.40;84.50
610;DHT22;292;48.800;9.216;2022-11-20T00:48:35;8.40;84.50
610;DHT22;292;48.800;9.216;2022-11-20T00:51:02;8.40;84.50
610;DHT22;292;48.800;9.216;2022-11-20T00:53:29;8.40;84.50
610;DHT22;292;48.800;9.216;2022-11-20T00:55:58;8.40;84.70
610;DHT22;292;48.800;9.216;2022-11-20T00:58:29;8.40;84.70
610;DHT22;292;48.800;9.216;2022-11-20T01:01:00;8.40;84.50
610;DHT22;292;48.800;9.216;2022-11-20T01:03:29;8.40;84.70
610;DHT22;292;48.800;9.216;2022-11-20T01:06:00;8.40;84.70
610;DHT22;292;48.800;9.216;2022-11-20T01:08:29;8.40;84.70
610;DHT22;292;48.800;9.216;2022-11-20T01:10:59;8.40;84.70
610;DHT22;292;48.800;9.216;2022-11-20T01:13:29;8.40;84.80
610;DHT22;292;48.800;9.216;2022-11-20T01:16:09;8.40;84.80
610;DHT22;292;48.800;9.216;2022-11-20T01:18:39;8.40;84.80
610;DHT22;292;48.800;9.216;2022-11-20T01:21:07;8.40;84.80
610;DHT22;292;48.800;9.216;2022-11-20T01:23:37;8.40;84.80
610;DHT22;292;48.800;9.216;2022-11-20T01:26:06;8.40;84.80
610;DHT22;292;48.800;9.216;2022-11-20T01:28:35;8.40;84.90
610;DHT22;292;48.800;9.216;2022-11-20T01:31:11;8.40;84.90
610;DHT22;292;48.800;9.216;2022-11-20T01:33:39;8.50;84.90
610;DHT22;292;48.800;9.216;2022-11-20T01:36:07;8.50;84.90
610;DHT22;292;48.800;9.216;2022-11-20T01:38:35;8.50;84.90
610;DHT22;292;48.800;9.216;2022-11-20T01:41:03;8.50;84.90
610;DHT22;292;48.800;9.216;2022-11-20T01:43:30;8.50;84.90
610;DHT22;292;48.800;9.216;2022-11-20T01:46:00;8.50;85.10
610;DHT22;292;48.800;9.216;2022-11-20T01:48:32;8.50;84.90
610;DHT22;292;48.800;9.216;2022-11-20T01:51:01;8.50;84.90
610;DHT22;292;48.800;9.216;2022-11-20T01:53:31;8.50;84.90
610;DHT22;292;48.800;9.216;2022-11-20T01:56:00;8.50;84.90
610;DHT22;292;48.800;9.216;2022-11-20T01:58:33;8.50;84.90
610;DHT22;292;48.800;9.216;2022-11-20T02:01:04;8.50;84.90
610;DHT22;292;48.800;9.216;2022-11-20T02:03:33;8.50;84.90
610;DHT22;292;48.800;9.216;2022-11-20T02:06:05;8.50;84.90
610;DHT22;292;48.800;9.216;2022-11-20T02:08:34;8.50;84.90
610;DHT22;292;48.800;9.216;2022-11-20T02:11:03;8.50;84.90
610;DHT22;292;48.800;9.216;2022-11-20T02:13:30;8.50;84.90
610;DHT22;292;48.800;9.216;2022-11-20T02:16:19;8.50;84.90
610;DHT22;292;48.800;9.216;2022-11-20T02:18:47;8.50;84.90
610;DHT22;292;48.800;9.216;2022-11-20T02:21:21;8.50;84.90
610;DHT22;292;48.800;9.216;2022-11-20T02:24:00;8.60;84.80
610;DHT22;292;48.800;9.216;2022-11-20T02:26:28;8.60;84.70
610;DHT22;292;48.800;9.216;2022-11-20T02:28:57;8.60;84.50
610;DHT22;292;48.800;9.216;2022-11-20T02:31:25;8.60;84.40
610;DHT22;292;48.800;9.216;2022-11-20T02:33:55;8.60;84.20
610;DHT22;292;48.800;9.216;2022-11-20T02:36:25;8.60;83.90
610;DHT22;292;48.800;9.216;2022-11-20T02:38:53;8.60;83.60
610;DHT22;292;48.800;9.216;2022-11-20T02:41:21;8.60;83.40
610;DHT22;292;48.800;9.216;2022-11-20T02:43:49;8.60;82.90
610;DHT22;292;48.800;9.216;2022-11-20T02:46:15;8.60;82.50
610;DHT22;292;48.800;9.216;2022-11-20T02:48:43;8.60;82.10
610;DHT22;292;48.800;9.216;2022-11-20T02:51:09;8.50;81.60
610;DHT22;292;48.800;9.216;2022-11-20T02:53:36;8.50;81.00
610;DHT22;292;48.800;9.216;2022-11-20T02:56:04;8.50;80.70
610;DHT22;292;48.800;9.216;2022-11-20T02:58:32;8.50;80.30
610;DHT22;292;48.800;9.216;2022-11-20T03:00:59;8.50;80.40
610;DHT22;292;48.800;9.216;2022-11-20T03:03:26;8.50;80.30
610;DHT22;292;48.800;9.216;2022-11-20T03:05:53;8.50;79.90
610;DHT22;292;48.800;9.216;2022-11-20T03:08:20;8.50;79.70
610;DHT22;292;48.800;9.216;2022-11-20T03:10:47;8.50;79.60
610;DHT22;292;48.800;9.216;2022-11-20T03:13:14;8.50;79.60
610;DHT22;292;48.800;9.216;2022-11-20T03:15:43;8.50;79.40
610;DHT22;292;48.800;9.216;2022-11-20T03:18:10;8.40;79.10
610;DHT22;292;48.800;9.216;2022-11-20T03:20:39;8.40;79.40
610;DHT22;292;48.800;9.216;2022-11-20T03:23:07;8.40;79.10
610;DHT22;292;48.800;9.216;2022-11-20T03:25:33;8.40;79.00
610;DHT22;292;48.800;9.216;2022-11-20T03:28:01;8.40;79.10
610;DHT22;292;48.800;9.216;2022-11-20T03:30:28;8.30;79.10
610;DHT22;292;48.800;9.216;2022-11-20T03:32:56;8.30;79.10
610;DHT22;292;48.800;9.216;2022-11-20T03:35:23;8.30;79.10
610;DHT22;292;48.800;9.216;2022-11-20T03:37:51;8.30;79.30
610;DHT22;292;48.800;9.216;2022-11-20T03:40:18;8.40;79.30
610;DHT22;292;48.800;9.216;2022-11-20T03:42:45;8.40;79.10
610;DHT22;292;48.800;9.216;2022-11-20T03:45:12;8.30;79.00
610;DHT22;292;48.800;9.216;2022-11-20T03:47:39;8.30;79.00
610;DHT22;292;48.800;9.216;2022-11-20T03:50:09;8.30;79.10
610;DHT22;292;48.800;9.216;2022-11-20T03:52:37;8.30;79.10
610;DHT22;292;48.800;9.216;2022-11-20T03:55:05;8.30;79.00
610;DHT22;292;48.800;9.216;2022-11-20T03:57:32;8.30;79.00
610;DHT22;292;48.800;9.216;2022-11-20T04:00:00;8.30;78.80
610;DHT22;292;48.800;9.216;2022-11-20T04:02:27;8.30;79.00
610;DHT22;292;48.800;9.216;2022-11-20T04:04:54;8.40;78.60
610;DHT22;292;48.800;9.216;2022-11-20T04:07:22;8.40;78.60
610;DHT22;292;48.800;9.216;2022-11-20T04:09:49;8.30;78.30
610;DHT22;292;48.800;9.216;2022-11-20T04:12:16;8.30;78.10
610;DHT22;292;48.800;9.216;2022-11-20T04:14:43;8.30;78.30
610;DHT22;292;48.800;9.216;2022-11-20T04:17:10;8.30;78.30
610;DHT22;292;48.800;9.216;2022-11-20T04:19:40;8.40;78.30
610;DHT22;292;48.800;9.216;2022-11-20T04:22:07;8.40;78.10
610;DHT22;292;48.800;9.216;2022-11-20T04:24:35;8.40;78.10
610;DHT22;292;48.800;9.216;2022-11-20T04:27:02;8.40;78.00
610;DHT22;292;48.800;9.216;2022-11-20T04:29:29;8.40;78.00
610;DHT22;292;48.800;9.216;2022-11-20T04:31:56;8.50;78.00
610;DHT22;292;48.800;9.216;2022-11-20T04:34:23;8.50;78.00
610;DHT22;292;48.800;9.216;2022-11-20T04:36:50;8.60;78.00
610;DHT22;292;48.800;9.216;2022-11-20T04:39:17;8.60;77.80
610;DHT22;292;48.800;9.216;2022-11-20T04:41:45;8.60;77.70
610;DHT22;292;48.800;9.216;2022-11-20T04:44:12;8.60;77.30
610;DHT22;292;48.800;9.216;2022-11-20T04:46:41;8.50;77.10
610;DHT22;292;48.800;9.216;2022-11-20T04:49:08;8.50;77.30
610;DHT22;292;48.800;9.216;2022-11-20T04:51:35;8.50;77.30
610;DHT22;292;48.800;9.216;2022-11-20T04:54:02;8.50;77.00
610;DHT22;292;48.800;9.216;2022-11-20T04:56:30;8.50;76.70
610;DHT22;292;48.800;9.216;2022-11-20T04:59:01;8.40;76.50
610;DHT22;292;48.800;9.216;2022-11-20T05:01:29;8.30;76.80
610;DHT22;292;48.800;9.216;2022-11-20T05:03:56;8.20;76.70
610;DHT22;292;48.800;9.216;2022-11-20T05:06:23;8.20;77.30
610;DHT22;292;48.800;9.216;2022-11-20T05:08:50;8.20;77.40
610;DHT22;292;48.800;9.216;2022-11-20T05:11:18;8.20;77.50
610;DHT22;292;48.800;9.216;2022-11-20T05:13:46;8.20;77.80
610;DHT22;292;48.800;9.216;2022-11-20T05:16:15;8.20;77.80
610;DHT22;292;48.800;9.216;2022-11-20T05:18:42;8.20;77.80
610;DHT22;292;48.800;9.216;2022-11-20T05:21:10;8.30;77.80
610;DHT22;292;48.800;9.216;2022-11-20T05:23:38;8.30;77.70
610;DHT22;292;48.800;9.216;2022-11-20T05:26:07;8.20;77.70
610;DHT22;292;48.800;9.216;2022-11-20T05:28:34;8.20;77.80
610;DHT22;292;48.800;9.216;2022-11-20T05:31:06;8.30;78.00
610;DHT22;292;48.800;9.216;2022-11-20T05:33:35;8.30;77.70
610;DHT22;292;48.800;9.216;2022-11-20T05:36:03;8.30;77.50
610;DHT22;292;48.800;9.216;2022-11-20T05:38:31;8.30;77.70
610;DHT22;292;48.800;9.216;2022-11-20T05:41:03;8.30;77.50
610;DHT22;292;48.800;9.216;2022-11-20T05:43:32;8.30;77.50
610;DHT22;292;48.800;9.216;2022-11-20T05:46:00;8.30;77.70
610;DHT22;292;48.800;9.216;2022-11-20T05:48:27;8.30;77.70
610;DHT22;292;48.800;9.216;2022-11-20T05:50:56;8.30;77.40
610;DHT22;292;48.800;9.216;2022-11-20T05:53:24;8.30;77.40
610;DHT22;292;48.800;9.216;2022-11-20T05:55:57;8.30;77.50
610;DHT22;292;48.800;9.216;2022-11-20T05:58:24;8.40;77.40
610;DHT22;292;48.800;9.216;2022-11-20T06:00:51;8.40;77.40
610;DHT22;292;48.800;9.216;2022-11-20T06:03:18;8.30;77.50
610;DHT22;292;48.800;9.216;2022-11-20T06:05:45;8.30;77.70
610;DHT22;292;48.800;9.216;2022-11-20T06:08:14;8.40;77.80
610;DHT22;292;48.800;9.216;2022-11-20T06:10:41;8.40;77.70
610;DHT22;292;48.800;9.216;2022-11-20T06:13:08;8.40;77.40
610;DHT22;292;48.800;9.216;2022-11-20T06:15:35;8.30;77.50
610;DHT22;292;48.800;9.216;2022-11-20T06:18:02;8.40;77.70
610;DHT22;292;48.800;9.216;2022-11-20T06:20:30;8.40;77.50
610;DHT22;292;48.800;9.216;2022-11-20T06:22:57;8.50;77.50
610;DHT22;292;48.800;9.216;2022-11-20T06:25:25;8.50;77.50
610;DHT22;292;48.800;9.216;2022-11-20T06:27:52;8.60;77.40
610;DHT22;292;48.800;9.216;2022-11-20T06:30:19;8.60;77.30
610;DHT22;292;48.800;9.216;2022-11-20T06:32:46;8.60;77.30
610;DHT22;292;48.800;9.216;2022-11-20T06:35:13;8.60;77.10
610;DHT22;292;48.800;9.216;2022-11-20T06:37:41;8.60;77.00
610;DHT22;292;48.800;9.216;2022-11-20T06:40:09;8.60;77.10
610;DHT22;292;48.800;9.216;2022-11-20T06:42:38;8.60;77.00
610;DHT22;292;48.800;9.216;2022-11-20T06:45:06;8.60;76.70
610;DHT22;292;48.800;9.216;2022-11-20T06:47:34;8.60;76.80
610;DHT22;292;48.800;9.216;2022-11-20T06:50:01;8.60;77.00
610;DHT22;292;48.800;9.216;2022-11-20T06:52:28;8.60;76.70
610;DHT22;292;48.800;9.216;2022-11-20T06:54:55;8.60;76.70
610;DHT22;292;48.800;9.216;2022-11-20T06:57:22;8.60;76.80
610;DHT22;292;48.800;9.216;2022-11-20T06:59:51;8.60;76.80
610;DHT22;292;48.800;9.216;2022-11-20T07:02:18;8.60;76.80
610;DHT22;292;48.800;9.216;2022-11-20T07:04:45;8.60;76.80
610;DHT22;292;48.800;9.216;2022-11-20T07:07:12;8.70;76.70
610;DHT22;292;48.800;9.216;2022-11-20T07:09:39;8.70;76.70
610;DHT22;292;48.800;9.216;2022-11-20T07:12:07;8.70;76.70
610;DHT22;292;48.800;9.216;2022-11-20T07:14:35;8.70;76.40
610;DHT22;292;48.800;9.216;2022-11-20T07:17:03;8.80;76.20
610;DHT22;292;48.800;9.216;2022-11-20T07:19:30;8.70;76.20
610;DHT22;292;48.800;9.216;2022-11-20T07:21:57;8.70;76.10
610;DHT22;292;48.800;9.216;2022-11-20T07:24:24;8.70;76.10
610;DHT22;292;48.800;9.216;2022-11-20T07:26:51;8.70;76.20
610;DHT22;292;48.800;9.216;2022-11-20T07:29:18;8.70;76.00
610;DHT22;292;48.800;9.216;2022-11-20T07:31:45;8.80;76.10
610;DHT22;292;48.800;9.216;2022-11-20T07:34:13;8.80;76.00
610;DHT22;292;48.800;9.216;2022-11-20T07:36:40;8.80;76.10
610;DHT22;292;48.800;9.216;2022-11-20T07:39:07;8.80;76.00
610;DHT22;292;48.800;9.216;2022-11-20T07:41:34;8.80;75.80
610;DHT22;292;48.800;9.216;2022-11-20T07:44:01;8.80;75.80
610;DHT22;292;48.800;9.216;2022-11-20T07:46:28;8.80;75.70
610;DHT22;292;48.800;9.216;2022-11-20T07:48:55;8.80;75.70
610;DHT22;292;48.800;9.216;2022-11-20T07:51:24;8.80;76.00
610;DHT22;292;48.800;9.216;2022-11-20T07:53:51;8.90;76.00
610;DHT22;292;48.800;9.216;2022-11-20T07:56:18;8.90;75.80
610;DHT22;292;48.800;9.216;2022-11-20T07:58:45;8.90;76.00
610;DHT22;292;48.800;9.216;2022-11-20T08:01:12;9.00;76.00
610;DHT22;292;48.800;9.216;2022-11-20T08:03:39;9.00;76.00
610;DHT22;292;48.800;9.216;2022-11-20T08:06:07;9.00;75.80
610;DHT22;292;48.800;9.216;2022-11-20T08:08:36;9.00;75.80
610;DHT22;292;48.800;9.216;2022-11-20T08:11:05;9.00;75.80
610;DHT22;292;48.800;9.216;2022-11-20T08:13:49;9.00;75.70
610;DHT22;292;48.800;9.216;2022-11-20T08:16:33;9.00;75.80
610;DHT22;292;48.800;9.216;2022-11-20T08:19:01;9.00;76.00
610;DHT22;292;48.800;9.216;2022-11-20T08:21:28;9.00;76.00
610;DHT22;292;48.800;9.216;2022-11-20T08:23:57;9.10;75.80
610;DHT22;292;48.800;9.216;2022-11-20T08:26:24;9.10;75.80
610;DHT22;292;48.800;9.216;2022-11-20T08:28:53;9.10;75.80
610;DHT22;292;48.800;9.216;2022-11-20T08:31:21;9.20;75.80
610;DHT22;292;48.800;9.216;2022-11-20T08:33:48;9.20;75.80
610;DHT22;292;48.800;9.216;2022-11-20T08:36:15;9.20;75.80
610;DHT22;292;48.800;9.216;2022-11-20T08:38:46;9.20;75.80
610;DHT22;292;48.800;9.216;2022-11-20T08:41:15;9.30;75.80
610;DHT22;292;48.800;9.216;2022-11-20T08:43:54;9.20;75.70
610;DHT22;292;48.800;9.216;2022-11-20T08:46:21;9.20;75.80
610;DHT22;292;48.800;9.216;2022-11-20T08:48:49;9.30;75.80
610;DHT22;292;48.800;9.216;2022-11-20T08:51:16;9.30;75.80
610;DHT22;292;48.800;9.216;2022-11-20T08:53:44;9.30;76.10
610;DHT22;292;48.800;9.216;2022-11-20T08:56:11;9.40;76.00
610;DHT22;292;48.800;9.216;2022-11-20T08:58:40;9.40;75.80
610;DHT22;292;48.800;9.216;2022-11-20T09:01:07;9.40;75.70
610;DHT22;292;48.800;9.216;2022-11-20T09:03:33;9.40;75.50
610;DHT22;292;48.800;9.216;2022-11-20T09:06:02;9.40;75.70
610;DHT22;292;48.800;9.216;2022-11-20T09:08:30;9.40;75.40
610;DHT22;292;48.800;9.216;2022-11-20T09:10:58;9.50;75.40
610;DHT22;292;48.800;9.216;2022-11-20T09:13:26;9.50;75.40
610;DHT22;292;48.800;9.216;2022-11-20T09:15:56;9.50;75.40
610;DHT22;292;48.800;9.216;2022-11-20T09:18:24;9.60;75.10
610;DHT22;292;48.800;9.216;2022-11-20T09:20:51;9.60;75.00
610;DHT22;292;48.800;9.216;2022-11-20T09:23:19;9.60;75.00
610;DHT22;292;48.800;9.216;2022-11-20T09:25:45;9.60;75.00
610;DHT22;292;48.800;9.216;2022-11-20T09:28:12;9.70;75.00
610;DHT22;292;48.800;9.216;2022-11-20T09:30:39;9.70;75.00
610;DHT22;292;48.800;9.216;2022-11-20T09:33:08;9.70;75.00
610;DHT22;292;48.800;9.216;2022-11-20T09:35:35;9.70;75.00
610;DHT22;292;48.800;9.216;2022-11-20T09:38:05;9.70;75.00
610;DHT22;292;48.800;9.216;2022-11-20T09:40:34;9.70;74.80
610;DHT22;292;48.800;9.216;2022-11-20T09:43:05;9.70;75.00
610;DHT22;292;48.800;9.216;2022-11-20T09:45:54;9.70;75.00
610;DHT22;292;48.800;9.216;2022-11-20T09:48:43;9.80;75.00
610;DHT22;292;48.800;9.216;2022-11-20T09:51:20;9.80;74.70
610;DHT22;292;48.800;9.216;2022-11-20T09:53:59;9.80;74.80
610;DHT22;292;48.800;9.216;2022-11-20T09:56:28;9.70;74.70
610;DHT22;292;48.800;9.216;2022-11-20T09:58:59;9.80;74.70
610;DHT22;292;48.800;9.216;2022-11-20T10:01:31;9.80;74.70
610;DHT22;292;48.800;9.216;2022-11-20T10:04:03;9.80;74.50
610;DHT22;292;48.800;9.216;2022-11-20T10:06:32;9.80;74.50
610;DHT22;292;48.800;9.216;2022-11-20T10:09:13;9.90;74.40
610;DHT22;292;48.800;9.216;2022-11-20T10:11:48;9.80;74.20
610;DHT22;292;48.800;9.216;2022-11-20T10:14:26;9.90;74.20
610;DHT22;292;48.800;9.216;2022-11-20T10:17:02;9.80;74.10
610;DHT22;292;48.800;9.216;2022-11-20T10:19:50;9.80;74.10
610;DHT22;292;48.800;9.216;2022-11-20T10:22:29;9.80;74.10
610;DHT22;292;48.800;9.216;2022-11-20T10:25:02;9.80;74.10
610;DHT22;292;48.800;9.216;2022-11-20T10:28:00;9.80;74.10
610;DHT22;292;48.800;9.216;2022-11-20T10:30:35;9.80;74.50
610;DHT22;292;48.800;9.216;2022-11-20T10:33:06;9.80;74.70
610;DHT22;292;48.800;9.216;2022-11-20T10:35:44;9.80;75.00
610;DHT22;292;48.800;9.216;2022-11-20T10:38:16;9.80;75.20
610;DHT22;292;48.800;9.216;2022-11-20T10:40:47;9.70;75.70
610;DHT22;292;48.800;9.216;2022-11-20T10:43:18;9.70;76.10
610;DHT22;292;48.800;9.216;2022-11-20T10:45:53;9.70;76.50
610;DHT22;292;48.800;9.216;2022-11-20T10:48:23;9.60;77.00
610;DHT22;292;48.800;9.216;2022-11-20T10:51:03;9.60;77.50
610;DHT22;292;48.800;9.216;2022-11-20T10:53:53;9.60;78.00
610;DHT22;292;48.800;9.216;2022-11-20T10:56:24;9.50;78.30
610;DHT22;292;48.800;9.216;2022-11-20T10:59:24;9.50;78.40
610;DHT22;292;48.800;9.216;2022-11-20T11:01:54;9.40;78.60
610;DHT22;292;48.800;9.216;2022-11-20T11:04:33;9.50;78.70
610;DHT22;292;48.800;9.216;2022-11-20T11:07:10;9.50;79.00
610;DHT22;292;48.800;9.216;2022-11-20T11:09:41;9.40;79.40
610;DHT22;292;48.800;9.216;2022-11-20T11:12:10;9.40;79.70
610;DHT22;292;48.800;9.216;2022-11-20T11:14:48;9.40;80.00
610;DHT22;292;48.800;9.216;2022-11-20T11:17:22;9.50;80.10
610;DHT22;292;48.800;9.216;2022-11-20T11:20:07;9.50;80.40
610;DHT22;292;48.800;9.216;2022-11-20T11:22:47;9.50;80.40
610;DHT22;292;48.800;9.216;2022-11-20T11:25:30;9.60;80.60
610;DHT22;292;48.800;9.216;2022-11-20T11:28:02;9.60;80.60
610;DHT22;292;48.800;9.216;2022-11-20T11:30:30;9.60;80.70
610;DHT22;292;48.800;9.216;2022-11-20T11:33:10;9.60;80.90
610;DHT22;292;48.800;9.216;2022-11-20T11:35:44;9.60;81.00
610;DHT22;292;48.800;9.216;2022-11-20T11:38:16;9.70;81.30
610;DHT22;292;48.800;9.216;2022-11-20T11:40:47;9.80;81.70
610;DHT22;292;48.800;9.216;2022-11-20T11:43:19;9.90;82.10
610;DHT22;292;48.800;9.216;2022-11-20T11:46:09;10.10;82.40
610;DHT22;292;48.800;9.216;2022-11-20T11:48:55;10.40;82.40
610;DHT22;292;48.800;9.216;2022-11-20T11:51:25;10.60;81.60
610;DHT22;292;48.800;9.216;2022-11-20T11:53:57;10.80;80.90
610;DHT22;292;48.800;9.216;2022-11-20T11:56:34;11.00;80.40
610;DHT22;292;48.800;9.216;2022-11-20T11:59:09;11.20;79.70
610;DHT22;292;48.800;9.216;2022-11-20T12:01:42;11.50;78.70
610;DHT22;292;48.800;9.216;2022-11-20T12:04:17;11.70;78.00
610;DHT22;292;48.800;9.216;2022-11-20T12:07:00;11.90;77.40
610;DHT22;292;48.800;9.216;2022-11-20T12:09:38;12.10;76.00
610;DHT22;292;48.800;9.216;2022-11-20T12:12:11;12.30;75.20
610;DHT22;292;48.800;9.216;2022-11-20T12:14:42;12.50;74.70
610;DHT22;292;48.800;9.216;2022-11-20T12:17:11;12.60;73.80
610;DHT22;292;48.800;9.216;2022-11-20T12:19:39;12.70;72.50
610;DHT22;292;48.800;9.216;2022-11-20T12:22:15;12.80;71.80
610;DHT22;292;48.800;9.216;2022-11-20T12:24:52;12.90;70.60
610;DHT22;292;48.800;9.216;2022-11-20T12:27:41;12.80;69.30
610;DHT22;292;48.800;9.216;2022-11-20T12:30:13;12.70;68.50
610;DHT22;292;48.800;9.216;2022-11-20T12:32:59;12.70;67.90
610;DHT22;292;48.800;9.216;2022-11-20T12:38:40;12.50;66.20
610;DHT22;292;48.800;9.216;2022-11-20T12:41:18;12.40;65.70
610;DHT22;292;48.800;9.216;2022-11-20T12:44:16;12.50;65.40
610;DHT22;292;48.800;9.216;2022-11-20T12:47:12;12.50;65.00
610;DHT22;292;48.800;9.216;2022-11-20T12:49:47;12.50;64.60
610;DHT22;292;48.800;9.216;2022-11-20T12:52:37;12.50;64.40
610;DHT22;292;48.800;9.216;2022-11-20T12:55:22;12.60;63.40
610;DHT22;292;48.800;9.216;2022-11-20T12:57:57;12.60;61.50
610;DHT22;292;48.800;9.216;2022-11-20T13:00:25;12.60;61.00
610;DHT22;292;48.800;9.216;2022-11-20T13:03:17;12.60;60.40
610;DHT22;292;48.800;9.216;2022-11-20T13:05:55;12.70;60.00
610;DHT22;292;48.800;9.216;2022-11-20T13:08:28;12.70;59.40
610;DHT22;292;48.800;9.216;2022-11-20T13:11:01;12.70;58.80
610;DHT22;292;48.800;9.216;2022-11-20T13:13:42;12.80;58.50
610;DHT22;292;48.800;9.216;2022-11-20T13:16:17;12.80;58.20
610;DHT22;292;48.800;9.216;2022-11-20T13:18:46;12.70;58.10
610;DHT22;292;48.800;9.216;2022-11-20T13:21:15;12.70;57.80
610;DHT22;292;48.800;9.216;2022-11-20T13:23:42;12.50;57.40
610;DHT22;292;48.800;9.216;2022-11-20T13:26:19;12.30;57.30
610;DHT22;292;48.800;9.216;2022-11-20T13:29:00;12.20;57.60
610;DHT22;292;48.800;9.216;2022-11-20T13:31:31;12.10;57.40
610;DHT22;292;48.800;9.216;2022-11-20T13:33:59;12.00;57.60
610;DHT22;292;48.800;9.216;2022-11-20T13:36:29;12.00;57.40
610;DHT22;292;48.800;9.216;2022-11-20T13:38:58;11.90;57.00
610;DHT22;292;48.800;9.216;2022-11-20T13:41:28;11.90;56.90
610;DHT22;292;48.800;9.216;2022-11-20T13:44:06;11.90;57.00
610;DHT22;292;48.800;9.216;2022-11-20T13:46:38;12.00;57.00
610;DHT22;292;48.800;9.216;2022-11-20T13:49:14;12.00;57.00
610;DHT22;292;48.800;9.216;2022-11-20T13:51:45;12.00;57.30
610;DHT22;292;48.800;9.216;2022-11-20T13:54:40;12.00;57.20
610;DHT22;292;48.800;9.216;2022-11-20T13:57:27;12.10;57.20
610;DHT22;292;48.800;9.216;2022-11-20T14:00:05;12.00;56.90
610;DHT22;292;48.800;9.216;2022-11-20T14:02:37;11.90;57.00
610;DHT22;292;48.800;9.216;2022-11-20T14:05:04;11.80;56.90
610;DHT22;292;48.800;9.216;2022-11-20T14:07:35;11.80;57.30
610;DHT22;292;48.800;9.216;2022-11-20T14:10:04;11.70;57.30
610;DHT22;292;48.800;9.216;2022-11-20T14:12:33;11.60;58.00
610;DHT22;292;48.800;9.216;2022-11-20T14:15:04;11.60;58.60
610;DHT22;292;48.800;9.216;2022-11-20T14:17:33;11.60;59.00
610;DHT22;292;48.800;9.216;2022-11-20T14:20:02;11.50;59.40
610;DHT22;292;48.800;9.216;2022-11-20T14:22:30;11.40;59.70
610;DHT22;292;48.800;9.216;2022-11-20T14:25:03;11.40;60.10
610;DHT22;292;48.800;9.216;2022-11-20T14:27:34;11.30;60.40
610;DHT22;292;48.800;9.216;2022-11-20T14:30:05;11.30;60.80
610;DHT22;292;48.800;9.216;2022-11-20T14:32:35;11.20;61.40
610;DHT22;292;48.800;9.216;2022-11-20T14:35:07;11.10;61.70
610;DHT22;292;48.800;9.216;2022-11-20T14:37:38;11.10;62.10
610;DHT22;292;48.800;9.216;2022-11-20T14:40:22;11.00;62.50
610;DHT22;292;48.800;9.216;2022-11-20T14:42:50;11.00;62.80
610;DHT22;292;48.800;9.216;2022-11-20T14:45:19;11.00;63.10
610;DHT22;292;48.800;9.216;2022-11-20T14:47:47;11.00;63.30
610;DHT22;292;48.800;9.216;2022-11-20T14:50:19;11.00;63.40
610;DHT22;292;48.800;9.216;2022-11-20T14:52:51;11.00;63.70
610;DHT22;292;48.800;9.216;2022-11-20T14:55:29;11.00;63.70
610;DHT22;292;48.800;9.216;2022-11-20T14:57:58;11.00;63.80
610;DHT22;292;48.800;9.216;2022-11-20T15:00:28;11.00;63.80
610;DHT22;292;48.800;9.216;2022-11-20T15:02:56;11.00;63.70
610;DHT22;292;48.800;9.216;2022-11-20T15:05:24;11.00;63.70
610;DHT22;292;48.800;9.216;2022-11-20T15:08:03;10.90;63.70
610;DHT22;292;48.800;9.216;2022-11-20T15:10:31;10.90;63.70
610;DHT22;292;48.800;9.216;2022-11-20T15:13:01;10.90;63.70
610;DHT22;292;48.800;9.216;2022-11-20T15:15:44;10.90;63.40
610;DHT22;292;48.800;9.216;2022-11-20T15:18:13;10.90;63.30
610;DHT22;292;48.800;9.216;2022-11-20T15:20:42;10.80;63.10
610;DHT22;292;48.800;9.216;2022-11-20T15:23:11;10.80;63.10
610;DHT22;292;48.800;9.216;2022-11-20T15:25:39;10.80;63.00
610;DHT22;292;48.800;9.216;2022-11-20T15:28:16;10.70;63.30
610;DHT22;292;48.800;9.216;2022-11-20T15:30:45;10.70;63.40
610;DHT22;292;48.800;9.216;2022-11-20T15:33:13;10.70;63.40
610;DHT22;292;48.800;9.216;2022-11-20T15:35:46;10.70;63.60
610;DHT22;292;48.800;9.216;2022-11-20T15:38:14;10.70;63.70
610;DHT22;292;48.800;9.216;2022-11-20T15:40:41;10.60;63.80
610;DHT22;292;48.800;9.216;2022-11-20T15:43:08;10.60;63.80
610;DHT22;292;48.800;9.216;2022-11-20T15:45:38;10.60;64.00
610;DHT22;292;48.800;9.216;2022-11-20T15:48:10;10.60;64.10
610;DHT22;292;48.800;9.216;2022-11-20T15:50:41;10.50;64.40
610;DHT22;292;48.800;9.216;2022-11-20T15:53:10;10.50;64.60
610;DHT22;292;48.800;9.216;2022-11-20T15:55:37;10.50;64.70
610;DHT22;292;48.800;9.216;2022-11-20T15:58:04;10.40;65.00
610;DHT22;292;48.800;9.216;2022-11-20T16:00:31;10.30;65.10
610;DHT22;292;48.800;9.216;2022-11-20T16:02:58;10.30;65.40
610;DHT22;292;48.800;9.216;2022-11-20T16:05:29;10.30;65.60
610;DHT22;292;48.800;9.216;2022-11-20T16:07:57;10.20;65.70
610;DHT22;292;48.800;9.216;2022-11-20T16:10:24;10.20;65.90
610;DHT22;292;48.800;9.216;2022-11-20T16:12:51;10.20;65.90
610;DHT22;292;48.800;9.216;2022-11-20T16:15:36;10.20;66.00
610;DHT22;292;48.800;9.216;2022-11-20T16:18:14;10.20;66.00
610;DHT22;292;48.800;9.216;2022-11-20T16:20:44;10.20;66.20
610;DHT22;292;48.800;9.216;2022-11-20T16:23:11;10.20;66.40
610;DHT22;292;48.800;9.216;2022-11-20T16:25:38;10.20;66.40
610;DHT22;292;48.800;9.216;2022-11-20T16:28:05;10.20;66.60
610;DHT22;292;48.800;9.216;2022-11-20T16:30:33;10.10;66.70
610;DHT22;292;48.800;9.216;2022-11-20T16:33:00;10.10;66.90
610;DHT22;292;48.800;9.216;2022-11-20T16:35:28;10.10;67.20
610;DHT22;292;48.800;9.216;2022-11-20T16:37:57;10.10;67.20
610;DHT22;292;48.800;9.216;2022-11-20T16:40:25;10.10;67.30
610;DHT22;292;48.800;9.216;2022-11-20T16:42:52;10.00;67.50
610;DHT22;292;48.800;9.216;2022-11-20T16:45:19;10.00;67.70
610;DHT22;292;48.800;9.216;2022-11-20T16:47:46;10.00;67.90
610;DHT22;292;48.800;9.216;2022-11-20T16:50:13;10.00;67.90
610;DHT22;292;48.800;9.216;2022-11-20T16:52:40;10.00;68.20
610;DHT22;292;48.800;9.216;2022-11-20T16:55:09;10.00;68.30
610;DHT22;292;48.800;9.216;2022-11-20T16:57:37;9.90;68.50
610;DHT22;292;48.800;9.216;2022-11-20T17:00:08;9.90;68.60
610;DHT22;292;48.800;9.216;2022-11-20T17:02:35;9.90;68.60
610;DHT22;292;48.800;9.216;2022-11-20T17:05:04;9.90;68.70
610;DHT22;292;48.800;9.216;2022-11-20T17:07:31;9.90;69.20
610;DHT22;292;48.800;9.216;2022-11-20T17:09:58;9.90;69.20
610;DHT22;292;48.800;9.216;2022-11-20T17:12:27;9.90;69.00